createdAt,value
2019-03-20T00:00:30.797Z,7.8
2019-03-20T00:01:44.137Z,7.9
2019-03-20T00:02:45.733Z,7.9
2019-03-20T00:03:47.283Z,7.9
2019-03-20T00:04:51.614Z,7.9
2019-03-20T00:05:53.194Z,7.9
2019-03-20T00:06:54.794Z,7.9
2019-03-20T00:07:56.329Z,7.9
2019-03-20T00:08:57.894Z,7.9
2019-03-20T00:09:59.294Z,7.9
2019-03-20T00:11:00.684Z,7.9
2019-03-20T00:12:02.247Z,7.9
2019-03-20T00:13:03.480Z,7.9
2019-03-20T00:14:05.096Z,7.9
2019-03-20T00:15:06.735Z,7.9
2019-03-20T00:16:08.289Z,7.9
2019-03-20T00:17:09.684Z,7.9
2019-03-20T00:18:11.229Z,7.9
2019-03-20T00:19:12.796Z,7.9
2019-03-20T00:20:14.016Z,7.9
2019-03-20T00:21:15.580Z,7.9
2019-03-20T00:22:17.151Z,7.9
2019-03-20T00:23:18.700Z,7.9
2019-03-20T00:24:20.100Z,7.9
2019-03-20T00:25:21.676Z,7.2
2019-03-20T00:26:23.281Z,7.3
2019-03-20T00:27:24.684Z,7.3
2019-03-20T00:28:26.296Z,7.4
2019-03-20T00:29:27.834Z,7.4
2019-03-20T00:30:29.394Z,7.5
2019-03-20T00:31:30.942Z,7.5
2019-03-20T00:32:32.348Z,7.6
2019-03-20T00:33:33.910Z,7.6
2019-03-20T00:34:35.468Z,7.7
2019-03-20T00:35:36.862Z,7.7
2019-03-20T00:36:38.105Z,7.7
2019-03-20T00:37:39.510Z,7.7
2019-03-20T00:38:40.908Z,7.7
2019-03-20T00:39:42.297Z,7.7
2019-03-20T00:40:43.692Z,7.8
2019-03-20T00:41:44.760Z,7.8
2019-03-20T00:42:46.176Z,7.8
2019-03-20T00:43:47.741Z,7.9
2019-03-20T00:44:49.133Z,7.9
2019-03-20T00:45:50.681Z,7.9
2019-03-20T00:46:51.914Z,7.9
2019-03-20T00:47:53.314Z,7.9
2019-03-20T00:48:54.870Z,7.9
2019-03-20T00:49:58.998Z,7.8
2019-03-20T00:51:00.546Z,7.8
2019-03-20T00:52:02.120Z,7.8
2019-03-20T00:53:03.528Z,7.8
2019-03-20T00:54:04.918Z,7.8
2019-03-20T00:55:06.466Z,7.9
2019-03-20T00:56:07.832Z,7.9
2019-03-20T00:57:09.396Z,7.9
2019-03-20T00:58:10.955Z,7.9
2019-03-20T00:59:12.200Z,7.8
2019-03-20T01:00:13.754Z,7.8
2019-03-20T01:01:15.140Z,7.8
2019-03-20T01:02:16.673Z,7.8
2019-03-20T01:03:18.251Z,7.8
2019-03-20T01:04:19.500Z,7.8
2019-03-20T01:05:20.764Z,7.8
2019-03-20T01:06:22.188Z,7.8
2019-03-20T01:07:23.747Z,7.8
2019-03-20T01:08:25.314Z,7.9
2019-03-20T01:09:26.700Z,7.2
2019-03-20T01:10:28.240Z,7.2
2019-03-20T01:11:29.812Z,7.3
2019-03-20T01:12:31.225Z,7.3
2019-03-20T01:13:32.771Z,7.3
2019-03-20T01:14:34.322Z,7.3
2019-03-20T01:15:35.864Z,7.3
2019-03-20T01:16:37.442Z,7.4
2019-03-20T01:17:38.851Z,7.4
2019-03-20T01:18:40.335Z,7.4
2019-03-20T01:19:41.734Z,7.4
2019-03-20T01:20:43.131Z,7.4
2019-03-20T01:21:44.380Z,7.5
2019-03-20T01:22:45.928Z,7.5
2019-03-20T01:23:47.180Z,7.5
2019-03-20T01:24:48.730Z,7.5
2019-03-20T01:25:50.128Z,7.5
2019-03-20T01:26:51.678Z,7.5
2019-03-20T01:27:53.079Z,7.6
2019-03-20T01:28:54.623Z,7.6
2019-03-20T01:29:56.168Z,7.6
2019-03-20T01:30:57.706Z,7.5
2019-03-20T01:31:59.114Z,7.6
2019-03-20T01:33:00.516Z,7.6
2019-03-20T01:34:01.768Z,7.6
2019-03-20T01:35:03.172Z,7.7
2019-03-20T01:36:04.734Z,7.7
2019-03-20T01:37:06.302Z,7.7
2019-03-20T01:38:07.859Z,7.7
2019-03-20T01:39:09.412Z,7.8
2019-03-20T01:40:10.963Z,7.8
2019-03-20T01:41:12.516Z,7.9
2019-03-20T01:42:13.751Z,7.9
2019-03-20T01:43:15.150Z,7.9
2019-03-20T01:44:16.717Z,7.9
2019-03-20T01:45:18.497Z,7.2
2019-03-20T01:46:19.904Z,7.2
2019-03-20T01:47:21.460Z,7.3
2019-03-20T01:48:22.998Z,7.3
2019-03-20T01:49:24.236Z,7.3
2019-03-20T01:50:25.456Z,7.3
2019-03-20T01:51:26.853Z,7.4
2019-03-20T01:52:28.433Z,7.4
2019-03-20T01:53:29.983Z,7.4
2019-03-20T01:54:31.544Z,7.4
2019-03-20T01:55:33.103Z,7.4
2019-03-20T01:56:34.667Z,7.4
2019-03-20T01:57:36.074Z,7.4
2019-03-20T01:58:37.470Z,7.4
2019-03-20T01:59:39.037Z,7.4
2019-03-20T02:00:40.568Z,7.4
2019-03-20T02:01:41.950Z,7.4
2019-03-20T02:02:43.168Z,7.4
2019-03-20T02:03:44.745Z,7.3
2019-03-20T02:04:46.322Z,7.3
2019-03-20T02:05:47.902Z,7.3
2019-03-20T02:06:49.452Z,7.2
2019-03-20T02:07:50.862Z,7.2
2019-03-20T02:08:52.413Z,7.1
2019-03-20T02:09:53.944Z,7.1
2019-03-20T02:10:55.337Z,7.2
2019-03-20T02:11:56.874Z,7.1
2019-03-20T02:13:00.014Z,7.1
2019-03-20T02:14:01.587Z,7.1
2019-03-20T02:15:02.839Z,7.1
2019-03-20T02:16:04.236Z,7.1
2019-03-20T02:17:05.642Z,7.1
2019-03-20T02:18:07.196Z,7.1
2019-03-20T02:19:08.416Z,7.1
2019-03-20T02:20:09.798Z,7.2
2019-03-20T02:21:11.043Z,7.2
2019-03-20T02:22:12.428Z,7.1
2019-03-20T02:23:13.968Z,7.1
2019-03-20T02:24:15.355Z,7.1
2019-03-20T02:25:16.911Z,7.1
2019-03-20T02:26:18.469Z,7.1
2019-03-20T02:27:20.030Z,7.1
2019-03-20T02:28:21.336Z,7.1
2019-03-20T02:29:22.426Z,7.1
2019-03-20T02:30:24.029Z,7.1
2019-03-20T02:31:25.579Z,7.1
2019-03-20T02:32:27.143Z,7.1
2019-03-20T02:33:28.563Z,7.1
2019-03-20T02:34:30.109Z,7.1
2019-03-20T02:35:31.387Z,7.1
2019-03-20T02:36:32.834Z,7.1
2019-03-20T02:37:34.383Z,7.1
2019-03-20T02:38:35.927Z,7.1
2019-03-20T02:39:37.493Z,7.1
2019-03-20T02:40:39.070Z,7.1
2019-03-20T02:41:40.643Z,7.2
2019-03-20T02:42:42.231Z,7.1
2019-03-20T02:43:43.798Z,7.1
2019-03-20T02:44:45.341Z,7.2
2019-03-20T02:45:46.939Z,7.1
2019-03-20T02:46:48.498Z,7.2
2019-03-20T02:47:50.080Z,7.1
2019-03-20T02:48:51.495Z,7.2
2019-03-20T02:49:52.887Z,7.2
2019-03-20T02:50:54.269Z,7.1
2019-03-20T02:51:55.847Z,7.2
2019-03-20T02:52:57.422Z,7.2
2019-03-20T02:53:58.715Z,7.2
2019-03-20T02:55:00.362Z,7.2
2019-03-20T02:56:01.564Z,7.2
2019-03-20T02:57:03.029Z,7.2
2019-03-20T02:58:04.629Z,7.2
2019-03-20T02:59:06.229Z,7.2
2019-03-20T03:00:07.528Z,7.2
2019-03-20T03:01:08.881Z,7.2
2019-03-20T03:02:10.439Z,7.2
2019-03-20T03:03:11.868Z,7.2
2019-03-20T03:04:13.441Z,7.2
2019-03-20T03:05:15.010Z,7.2
2019-03-20T03:06:16.447Z,7.2
2019-03-20T03:07:17.863Z,7.2
2019-03-20T03:08:19.460Z,7.2
2019-03-20T03:09:21.040Z,7.3
2019-03-20T03:10:22.638Z,7.2
2019-03-20T03:11:25.521Z,7.2
2019-03-20T03:12:26.951Z,7.2
2019-03-20T03:13:28.538Z,7.2
2019-03-20T03:14:29.967Z,7.2
2019-03-20T03:15:31.408Z,7.2
2019-03-20T03:16:33.008Z,7.2
2019-03-20T03:17:34.810Z,7.2
2019-03-20T03:18:36.492Z,7.2
2019-03-20T03:19:38.069Z,7.3
2019-03-20T03:20:39.666Z,7.3
2019-03-20T03:21:41.101Z,7.3
2019-03-20T03:22:42.507Z,7.3
2019-03-20T03:23:43.913Z,7.3
2019-03-20T03:24:45.462Z,7.3
2019-03-20T03:25:50.730Z,7.3
2019-03-20T03:26:52.335Z,7.3
2019-03-20T03:27:53.937Z,7.3
2019-03-20T03:28:55.521Z,7.4
2019-03-20T03:29:56.937Z,7.4
2019-03-20T03:30:58.679Z,7.4
2019-03-20T03:32:00.277Z,7.4
2019-03-20T03:33:01.792Z,7.5
2019-03-20T03:34:03.421Z,7.5
2019-03-20T03:35:05.065Z,7.5
2019-03-20T03:36:22.599Z,7.5
2019-03-20T03:37:24.150Z,7.5
2019-03-20T03:38:25.600Z,7.5
2019-03-20T03:39:27.165Z,7.5
2019-03-20T03:40:28.628Z,7.5
2019-03-20T03:41:30.210Z,7.5
2019-03-20T03:42:31.795Z,7.6
2019-03-20T03:43:33.224Z,7.6
2019-03-20T03:44:34.471Z,7.6
2019-03-20T03:45:35.750Z,7.6
2019-03-20T03:46:37.316Z,7.7
2019-03-20T03:47:38.908Z,7.7
2019-03-20T03:48:40.167Z,7.7
2019-03-20T03:49:41.747Z,7.6
2019-03-20T03:50:43.188Z,7.7
2019-03-20T03:51:44.444Z,7.7
2019-03-20T03:52:46.088Z,7.7
2019-03-20T03:53:47.682Z,7.7
2019-03-20T03:54:49.274Z,7.7
2019-03-20T03:55:50.884Z,7.8
2019-03-20T03:56:52.449Z,7.8
2019-03-20T03:57:54.048Z,7.8
2019-03-20T03:58:55.668Z,7.8
2019-03-20T03:59:57.337Z,7.8
2019-03-20T04:00:58.832Z,7.8
2019-03-20T04:02:00.415Z,7.7
2019-03-20T04:03:01.998Z,7.8
2019-03-20T04:04:03.261Z,7.8
2019-03-20T04:05:04.693Z,7.8
2019-03-20T04:06:06.030Z,7.8
2019-03-20T04:07:07.441Z,7.8
2019-03-20T04:08:08.689Z,7.8
2019-03-20T04:09:10.251Z,7.8
2019-03-20T04:10:11.815Z,7.8
2019-03-20T04:11:13.385Z,7.9
2019-03-20T04:12:14.640Z,7.9
2019-03-20T04:13:16.058Z,7.9
2019-03-20T04:14:17.660Z,7.9
2019-03-20T04:15:19.321Z,7.9
2019-03-20T04:16:20.892Z,7.9
2019-03-20T04:17:22.310Z,7.9
2019-03-20T04:18:23.878Z,7.8
2019-03-20T04:19:25.472Z,7.8
2019-03-20T04:20:27.036Z,7.8
2019-03-20T04:21:28.444Z,7.7
2019-03-20T04:22:29.902Z,7.6
2019-03-20T04:23:32.117Z,7.5
2019-03-20T04:24:33.898Z,7.4
2019-03-20T04:25:35.542Z,7.3
2019-03-20T04:26:37.178Z,7.2
2019-03-20T04:27:38.594Z,7.2
2019-03-20T04:28:40.162Z,7.1
2019-03-20T04:29:41.752Z,7.2
2019-03-20T04:30:43.317Z,7.2
2019-03-20T04:31:44.750Z,7.1
2019-03-20T04:32:46.385Z,7.2
2019-03-20T04:33:47.910Z,7.2
2019-03-20T04:34:49.499Z,7.2
2019-03-20T04:35:51.104Z,7.2
2019-03-20T04:36:52.525Z,7.2
2019-03-20T04:37:54.160Z,7.2
2019-03-20T04:38:55.590Z,7.2
2019-03-20T04:39:57.146Z,7.2
2019-03-20T04:40:58.556Z,7.2
2019-03-20T04:42:00.183Z,7.3
2019-03-20T04:43:01.534Z,7.4
2019-03-20T04:44:02.936Z,7.5
2019-03-20T04:45:04.173Z,7.6
2019-03-20T04:46:05.420Z,7.7
2019-03-20T04:47:06.841Z,7.8
2019-03-20T04:48:08.242Z,7.8
2019-03-20T04:49:09.808Z,7.9
2019-03-20T04:50:11.214Z,7.9
2019-03-20T04:51:12.774Z,7.9
2019-03-20T04:52:14.327Z,7.9
2019-03-20T04:53:15.728Z,7.9
2019-03-20T04:54:17.298Z,7.9
2019-03-20T04:55:18.876Z,7.9
2019-03-20T04:56:20.275Z,7.9
2019-03-20T04:57:21.824Z,7.9
2019-03-20T04:58:23.422Z,7.9
2019-03-20T04:59:25.002Z,7.9
2019-03-20T05:00:26.548Z,7.9
2019-03-20T05:01:28.130Z,7.9
2019-03-20T05:02:29.701Z,7.9
2019-03-20T05:03:31.102Z,7.8
2019-03-20T05:04:32.701Z,7.8
2019-03-20T05:05:34.262Z,7.8
2019-03-20T05:06:35.503Z,7.8
2019-03-20T05:07:37.085Z,7.8
2019-03-20T05:08:38.480Z,7.8
2019-03-20T05:09:39.874Z,7.8
2019-03-20T05:10:41.250Z,7.8
2019-03-20T05:11:42.810Z,7.8
2019-03-20T05:12:44.190Z,7.7
2019-03-20T05:13:45.744Z,7.7
2019-03-20T05:14:47.304Z,7.7
2019-03-20T05:15:48.699Z,7.7
2019-03-20T05:16:50.142Z,7.7
2019-03-20T05:17:51.668Z,7.6
2019-03-20T05:18:52.906Z,7.6
2019-03-20T05:19:54.301Z,7.6
2019-03-20T05:20:55.850Z,7.5
2019-03-20T05:21:57.230Z,7.5
2019-03-20T05:22:58.646Z,7.5
2019-03-20T05:24:00.199Z,7.5
2019-03-20T05:25:01.856Z,7.5
2019-03-20T05:26:03.450Z,7.4
2019-03-20T05:27:05.040Z,7.4
2019-03-20T05:28:06.616Z,7.4
2019-03-20T05:29:08.196Z,7.4
2019-03-20T05:30:09.591Z,7.4
2019-03-20T05:31:11.135Z,7.3
2019-03-20T05:32:12.378Z,7.3
2019-03-20T05:33:13.601Z,7.2
2019-03-20T05:34:15.169Z,7.2
2019-03-20T05:35:16.728Z,7.2
2019-03-20T05:36:18.130Z,7.2
2019-03-20T05:37:19.732Z,7.2
2019-03-20T05:38:21.154Z,7.2
2019-03-20T05:39:22.746Z,7.2
2019-03-20T05:40:24.312Z,7.2
2019-03-20T05:41:25.739Z,7.2
2019-03-20T05:42:27.127Z,7.2
2019-03-20T05:43:28.541Z,7.2
2019-03-20T05:44:29.792Z,7.2
2019-03-20T05:45:31.352Z,7.2
2019-03-20T05:46:32.932Z,7.2
2019-03-20T05:47:34.512Z,7.2
2019-03-20T05:48:36.098Z,7.2
2019-03-20T05:49:37.201Z,7.2
2019-03-20T05:50:38.608Z,7.2
2019-03-20T05:51:40.176Z,7.2
2019-03-20T05:52:41.748Z,7.2
2019-03-20T05:53:43.151Z,7.2
2019-03-20T05:54:44.708Z,7.2
2019-03-20T05:55:46.258Z,7.2
2019-03-20T05:56:47.654Z,7.2
2019-03-20T05:57:49.047Z,7.2
2019-03-20T05:58:50.605Z,7.2
2019-03-20T05:59:51.854Z,7.2
2019-03-20T06:00:53.248Z,7.2
2019-03-20T06:01:54.486Z,7.2
2019-03-20T06:02:56.044Z,7.2
2019-03-20T06:03:57.591Z,7.2
2019-03-20T06:04:58.818Z,7.3
2019-03-20T06:06:00.102Z,7.4
2019-03-20T06:07:01.511Z,7.4
2019-03-20T06:08:02.914Z,7.5
2019-03-20T06:09:04.307Z,7.5
2019-03-20T06:10:05.848Z,7.5
2019-03-20T06:11:07.409Z,7.5
2019-03-20T06:12:08.968Z,7.5
2019-03-20T06:13:10.357Z,7.5
2019-03-20T06:14:11.746Z,7.5
2019-03-20T06:15:13.155Z,7.4
2019-03-20T06:16:14.708Z,7.4
2019-03-20T06:17:15.980Z,7.3
2019-03-20T06:18:17.381Z,7.3
2019-03-20T06:19:18.634Z,7.2
2019-03-20T06:20:20.029Z,7.2
2019-03-20T06:21:21.182Z,7.2
2019-03-20T06:22:23.864Z,7.2
2019-03-20T06:23:25.437Z,7.2
2019-03-20T06:24:27.025Z,7.2
2019-03-20T06:25:28.293Z,7.2
2019-03-20T06:26:29.866Z,7.2
2019-03-20T06:27:31.275Z,7.2
2019-03-20T06:28:32.880Z,7.2
2019-03-20T06:29:34.430Z,7.2
2019-03-20T06:30:35.977Z,7.2
2019-03-20T06:31:37.390Z,7.2
2019-03-20T06:32:38.959Z,7.2
2019-03-20T06:33:40.368Z,7.3
2019-03-20T06:34:41.439Z,7.3
2019-03-20T06:35:42.871Z,7.4
2019-03-20T06:36:44.410Z,7.5
2019-03-20T06:37:46.132Z,7.6
2019-03-20T06:38:47.547Z,7.7
2019-03-20T06:39:48.933Z,7.8
2019-03-20T06:40:50.335Z,7.9
2019-03-20T06:41:51.886Z,7.9
2019-03-20T06:42:56.000Z,7.9
2019-03-20T06:43:57.590Z,7.9
2019-03-20T06:44:59.167Z,7.9
2019-03-20T06:46:00.562Z,7.9
2019-03-20T06:47:01.980Z,7.9
2019-03-20T06:48:03.363Z,7.9
2019-03-20T06:49:04.835Z,7.9
2019-03-20T06:50:06.228Z,7.8
2019-03-20T06:51:07.634Z,7.8
2019-03-20T06:52:09.184Z,7.8
2019-03-20T06:53:10.586Z,7.8
2019-03-20T06:54:12.201Z,7.8
2019-03-20T06:55:13.461Z,7.8
2019-03-20T06:56:14.868Z,7.8
2019-03-20T06:57:16.269Z,7.8
2019-03-20T06:58:17.657Z,7.8
2019-03-20T06:59:19.040Z,7.8
2019-03-20T07:00:20.453Z,7.8
2019-03-20T07:01:22.015Z,7.8
2019-03-20T07:02:23.434Z,7.8
2019-03-20T07:03:24.827Z,7.8
2019-03-20T07:04:26.742Z,7.8
2019-03-20T07:05:28.259Z,7.7
2019-03-20T07:06:29.714Z,7.7
2019-03-20T07:07:30.961Z,7.7
2019-03-20T07:08:32.542Z,7.7
2019-03-20T07:09:33.947Z,7.7
2019-03-20T07:10:35.501Z,7.6
2019-03-20T07:11:36.975Z,7.6
2019-03-20T07:12:38.380Z,7.6
2019-03-20T07:13:39.456Z,7.6
2019-03-20T07:14:40.714Z,7.6
2019-03-20T07:15:42.112Z,7.6
2019-03-20T07:16:43.656Z,7.6
2019-03-20T07:17:45.071Z,7.6
2019-03-20T07:18:46.634Z,7.6
2019-03-20T07:19:48.188Z,7.6
2019-03-20T07:20:49.742Z,7.6
2019-03-20T07:21:51.316Z,7.5
2019-03-20T07:22:52.728Z,7.5
2019-03-20T07:23:54.364Z,7.5
2019-03-20T07:24:55.942Z,7.5
2019-03-20T07:25:57.248Z,7.5
2019-03-20T07:26:58.796Z,7.5
2019-03-20T07:28:00.348Z,7.5
2019-03-20T07:29:01.953Z,7.6
2019-03-20T07:30:03.506Z,7.6
2019-03-20T07:31:17.190Z,7.7
2019-03-20T07:32:18.573Z,7.8
2019-03-20T07:33:20.122Z,7.8
2019-03-20T07:34:21.702Z,7.8
2019-03-20T07:35:23.251Z,7.8
2019-03-20T07:36:24.792Z,7.7
2019-03-20T07:37:26.023Z,7.7
2019-03-20T07:38:27.590Z,7.6
2019-03-20T07:39:28.990Z,7.5
2019-03-20T07:40:30.540Z,7.4
2019-03-20T07:41:32.112Z,7.3
2019-03-20T07:42:33.511Z,7.1
2019-03-20T07:43:34.922Z,7.1
2019-03-20T07:44:36.490Z,7.1
2019-03-20T07:45:38.051Z,7.1
2019-03-20T07:46:39.622Z,7.2
2019-03-20T07:47:41.181Z,7.2
2019-03-20T07:48:42.728Z,7.1
2019-03-20T07:49:44.287Z,7.1
2019-03-20T07:50:45.685Z,7.1
2019-03-20T07:51:47.236Z,7.1
2019-03-20T07:52:48.760Z,7.2
2019-03-20T07:53:50.360Z,7.2
2019-03-20T07:54:51.907Z,7.2
2019-03-20T07:55:53.463Z,7.2
2019-03-20T07:56:54.695Z,7.2
2019-03-20T07:57:56.112Z,7.2
2019-03-20T07:58:57.671Z,7.2
2019-03-20T07:59:59.083Z,7.2
2019-03-20T08:01:00.318Z,7.3
2019-03-20T08:02:01.715Z,7.3
2019-03-20T08:03:03.266Z,7.4
2019-03-20T08:04:04.857Z,7.5
2019-03-20T08:05:06.290Z,7.7
2019-03-20T08:06:07.540Z,7.9
2019-03-20T08:07:08.933Z,7.9
2019-03-20T08:08:10.359Z,7.9
2019-03-20T08:09:11.764Z,7.9
2019-03-20T08:10:13.328Z,7.9
2019-03-20T08:11:14.743Z,7.9
2019-03-20T08:12:16.020Z,7.9
2019-03-20T08:13:17.398Z,7.9
2019-03-20T08:14:18.659Z,7.8
2019-03-20T08:15:19.910Z,7.9
2019-03-20T08:16:21.462Z,7.8
2019-03-20T08:17:22.762Z,7.9
2019-03-20T08:18:24.351Z,7.9
2019-03-20T08:19:25.648Z,7.2
2019-03-20T08:20:28.279Z,7.4
2019-03-20T08:21:29.514Z,7.5
2019-03-20T08:22:31.081Z,7.5
2019-03-20T08:23:32.723Z,7.6
2019-03-20T08:24:34.129Z,7.6
2019-03-20T08:25:35.700Z,7.7
2019-03-20T08:26:37.249Z,7.6
2019-03-20T08:27:39.006Z,7.6
2019-03-20T08:28:40.548Z,7.6
2019-03-20T08:29:42.109Z,7.6
2019-03-20T08:30:43.665Z,7.5
2019-03-20T08:31:45.200Z,7.5
2019-03-20T08:32:46.766Z,7.4
2019-03-20T08:33:48.312Z,7.4
2019-03-20T08:34:49.720Z,7.3
2019-03-20T08:35:51.138Z,7.3
2019-03-20T08:36:52.703Z,7.2
2019-03-20T08:37:54.281Z,7.2
2019-03-20T08:38:55.870Z,7.2
2019-03-20T08:39:57.294Z,7.2
2019-03-20T08:40:58.859Z,7.2
2019-03-20T08:42:00.417Z,7.2
2019-03-20T08:43:01.997Z,7.2
2019-03-20T08:44:03.556Z,7.2
2019-03-20T08:45:05.129Z,7.2
2019-03-20T08:46:06.679Z,7.2
2019-03-20T08:47:08.087Z,7.2
2019-03-20T08:48:09.505Z,7.2
2019-03-20T08:49:10.936Z,7.2
2019-03-20T08:50:12.520Z,7.2
2019-03-20T08:51:14.083Z,7.2
2019-03-20T08:52:15.481Z,7.2
2019-03-20T08:53:17.039Z,7.3
2019-03-20T08:54:18.578Z,7.3
2019-03-20T08:55:19.820Z,7.4
2019-03-20T08:56:21.386Z,7.4
2019-03-20T08:57:22.939Z,7.5
2019-03-20T08:58:24.520Z,7.5
2019-03-20T08:59:26.065Z,7.6
2019-03-20T09:00:27.310Z,7.7
2019-03-20T09:01:30.303Z,7.8
2019-03-20T09:02:31.880Z,7.8
2019-03-20T09:03:33.431Z,7.9
2019-03-20T09:04:37.254Z,7.9
2019-03-20T09:05:38.797Z,7.9
2019-03-20T09:06:40.380Z,7.9
2019-03-20T09:07:49.124Z,7.8
2019-03-20T09:08:50.666Z,7.8
2019-03-20T09:09:52.408Z,7.8
2019-03-20T09:10:53.821Z,7.8
2019-03-20T09:11:55.068Z,7.8
2019-03-20T09:12:56.588Z,7.8
2019-03-20T09:13:58.128Z,7.8
2019-03-20T09:14:59.683Z,7.8
2019-03-20T09:16:01.110Z,7.8
2019-03-20T09:17:02.681Z,7.7
2019-03-20T09:18:04.259Z,7.6
2019-03-20T09:19:05.845Z,7.5
2019-03-20T09:20:07.400Z,7.4
2019-03-20T09:21:08.820Z,7.3
2019-03-20T09:22:10.214Z,7.2
2019-03-20T09:23:11.641Z,7.2
2019-03-20T09:24:13.051Z,7.2
2019-03-20T09:25:14.306Z,7.2
2019-03-20T09:26:15.847Z,7.2
2019-03-20T09:27:17.410Z,7.2
2019-03-20T09:28:18.793Z,7.2
2019-03-20T09:29:20.524Z,7.2
2019-03-20T09:30:21.939Z,7.2
2019-03-20T09:31:23.500Z,7.2
2019-03-20T09:32:24.755Z,7.3
2019-03-20T09:33:26.530Z,7.4
2019-03-20T09:34:28.102Z,7.5
2019-03-20T09:35:29.346Z,7.6
2019-03-20T09:36:30.741Z,7.8
2019-03-20T09:37:32.295Z,7.8
2019-03-20T09:38:45.179Z,7.9
2019-03-20T09:39:46.591Z,7.9
2019-03-20T09:40:48.145Z,7.9
2019-03-20T09:41:49.709Z,7.9
2019-03-20T09:42:51.136Z,7.9
2019-03-20T09:43:52.375Z,7.5
2019-03-20T09:44:53.926Z,7.9
2019-03-20T09:45:58.130Z,7.9
2019-03-20T09:46:59.515Z,7.9
2019-03-20T09:48:00.919Z,7.9
2019-03-20T09:49:02.314Z,7.9
2019-03-20T09:50:03.716Z,7.9
2019-03-20T09:51:05.115Z,7.9
2019-03-20T09:52:06.682Z,7.9
2019-03-20T09:53:07.945Z,7.8
2019-03-20T09:54:08.893Z,7.8
2019-03-20T09:55:10.450Z,7.8
2019-03-20T09:56:12.007Z,7.7
2019-03-20T09:57:13.553Z,7.7
2019-03-20T09:58:15.112Z,7.7
2019-03-20T09:59:16.550Z,7.7
2019-03-20T10:00:18.113Z,7.6
2019-03-20T10:01:19.717Z,7.5
2019-03-20T10:02:21.098Z,7.5
2019-03-20T10:03:22.511Z,7.4
2019-03-20T10:04:23.931Z,7.4
2019-03-20T10:05:25.487Z,7.3
2019-03-20T10:06:26.895Z,7.3
2019-03-20T10:07:28.487Z,7.3
2019-03-20T10:08:29.947Z,7.3
2019-03-20T10:09:31.487Z,7.3
2019-03-20T10:10:32.893Z,7.3
2019-03-20T10:11:34.451Z,7.4
2019-03-20T10:12:35.857Z,7.4
2019-03-20T10:13:37.435Z,7.4
2019-03-20T10:14:38.516Z,7.5
2019-03-20T10:15:40.101Z,7.5
2019-03-20T10:16:41.651Z,7.5
2019-03-20T10:17:43.209Z,7.6
2019-03-20T10:18:44.658Z,7.7
2019-03-20T10:19:46.207Z,7.8
2019-03-20T10:20:47.597Z,7.8
2019-03-20T10:21:48.978Z,7.2
2019-03-20T10:22:50.529Z,7.2
2019-03-20T10:23:52.086Z,7.2
2019-03-20T10:24:53.660Z,7.2
2019-03-20T10:25:55.081Z,7.2
2019-03-20T10:26:56.463Z,7.2
2019-03-20T10:27:57.861Z,7.1
2019-03-20T10:28:59.247Z,7.1
2019-03-20T10:30:00.976Z,7.1
2019-03-20T10:31:02.372Z,7.1
2019-03-20T10:32:03.626Z,7.1
2019-03-20T10:33:05.019Z,7.1
2019-03-20T10:34:06.274Z,7.2
2019-03-20T10:35:07.679Z,7.1
2019-03-20T10:36:09.072Z,7.1
2019-03-20T10:37:10.481Z,7.1
2019-03-20T10:38:12.029Z,7.1
2019-03-20T10:39:14.386Z,7.2
2019-03-20T10:40:16.051Z,7.1
2019-03-20T10:41:17.454Z,7.2
2019-03-20T10:42:18.715Z,7.1
2019-03-20T10:43:20.128Z,7.1
2019-03-20T10:44:21.683Z,7.1
2019-03-20T10:45:23.231Z,7.1
2019-03-20T10:46:24.629Z,7.2
2019-03-20T10:47:26.041Z,7.2
2019-03-20T10:48:27.291Z,7.2
2019-03-20T10:49:28.705Z,7.2
2019-03-20T10:50:30.137Z,7.2
2019-03-20T10:51:31.704Z,7.2
2019-03-20T10:52:33.288Z,7.2
2019-03-20T10:53:34.704Z,7.2
2019-03-20T10:54:36.095Z,7.2
2019-03-20T10:55:37.601Z,7.2
2019-03-20T10:56:39.047Z,7.2
2019-03-20T10:57:40.640Z,7.2
2019-03-20T10:58:42.068Z,7.2
2019-03-20T10:59:43.650Z,7.2
2019-03-20T11:00:45.244Z,7.3
2019-03-20T11:01:46.829Z,7.3
2019-03-20T11:02:48.409Z,7.4
2019-03-20T11:03:49.989Z,7.4
2019-03-20T11:04:51.399Z,7.6
2019-03-20T11:05:52.811Z,7.7
2019-03-20T11:06:54.411Z,7.9
2019-03-20T11:07:55.843Z,7.9
2019-03-20T11:08:57.249Z,7.9
2019-03-20T11:09:58.820Z,7.3
2019-03-20T11:11:00.083Z,7.5
2019-03-20T11:12:01.659Z,7.6
2019-03-20T11:13:03.093Z,7.8
2019-03-20T11:14:04.690Z,7.9
2019-03-20T11:15:06.406Z,7.9
2019-03-20T11:16:07.654Z,7.9
2019-03-20T11:17:09.209Z,7.9
2019-03-20T11:18:10.634Z,7.9
2019-03-20T11:19:12.172Z,7.9
2019-03-20T11:20:13.454Z,7.9
2019-03-20T11:21:14.840Z,7.9
2019-03-20T11:22:20.658Z,7.9
2019-03-20T11:23:22.217Z,7.8
2019-03-20T11:24:23.660Z,7.9
2019-03-20T11:25:25.227Z,7.9
2019-03-20T11:26:26.798Z,7.9
2019-03-20T11:27:29.333Z,7.9
2019-03-20T11:28:30.761Z,7.9
2019-03-20T11:29:32.182Z,7.9
2019-03-20T11:30:33.772Z,7.6
2019-03-20T11:31:35.025Z,7.8
2019-03-20T11:32:36.595Z,7.9
2019-03-20T11:33:38.148Z,7.7
2019-03-20T11:34:39.600Z,7.8
2019-03-20T11:35:43.837Z,7.9
2019-03-20T11:36:45.257Z,7.9
2019-03-20T11:37:46.669Z,7.9
2019-03-20T11:38:48.250Z,7.9
2019-03-20T11:39:49.629Z,7.9
2019-03-20T11:40:51.040Z,7.9
2019-03-20T11:41:52.121Z,7.9
2019-03-20T11:42:53.537Z,7.9
2019-03-20T11:43:54.959Z,7.9
2019-03-20T11:44:56.501Z,7.2
2019-03-20T11:45:57.904Z,7.4
2019-03-20T11:46:59.483Z,7.5
2019-03-20T11:48:01.068Z,7.5
2019-03-20T11:49:02.640Z,7.6
2019-03-20T11:50:04.208Z,7.7
2019-03-20T11:51:05.662Z,7.8
2019-03-20T11:52:07.900Z,7.8
2019-03-20T11:53:09.308Z,7.8
2019-03-20T11:54:10.883Z,7.9
2019-03-20T11:55:12.443Z,7.9
2019-03-20T11:56:13.902Z,7.9
2019-03-20T11:57:15.509Z,7.9
2019-03-20T11:58:16.771Z,7.9
2019-03-20T11:59:18.325Z,7.8
2019-03-20T12:00:19.902Z,7.8
2019-03-20T12:01:21.291Z,7.8
2019-03-20T12:02:29.956Z,7.7
2019-03-20T12:03:31.506Z,7.7
2019-03-20T12:04:32.903Z,7.6
2019-03-20T12:05:34.512Z,7.5
2019-03-20T12:06:36.085Z,7.4
2019-03-20T12:07:37.680Z,7.2
2019-03-20T12:08:39.285Z,7.1
2019-03-20T12:09:42.738Z,7.2
2019-03-20T12:10:44.297Z,7.1
2019-03-20T12:11:47.599Z,7.2
2019-03-20T12:12:49.163Z,7.1
2019-03-20T12:13:50.625Z,7.1
2019-03-20T12:14:52.019Z,7.1
2019-03-20T12:15:53.248Z,7.1
2019-03-20T12:16:54.667Z,7.1
2019-03-20T12:17:56.062Z,7.1
2019-03-20T12:18:57.637Z,7.1
2019-03-20T12:19:59.207Z,7.1
2019-03-20T12:21:00.780Z,7.1
2019-03-20T12:22:02.181Z,7.1
2019-03-20T12:23:03.437Z,7.1
2019-03-20T12:24:04.861Z,7.1
2019-03-20T12:25:06.247Z,7.1
2019-03-20T12:26:07.490Z,7.2
2019-03-20T12:27:17.004Z,7.2
2019-03-20T12:28:33.250Z,7.2
2019-03-20T12:29:34.831Z,7.2
2019-03-20T12:30:36.429Z,7.2
2019-03-20T12:31:37.991Z,7.2
2019-03-20T12:32:39.566Z,7.3
2019-03-20T12:33:40.965Z,7.4
2019-03-20T12:34:42.234Z,7.5
2019-03-20T12:35:43.708Z,7.6
2019-03-20T12:36:45.132Z,7.7
2019-03-20T12:37:46.690Z,7.8
2019-03-20T12:38:48.100Z,7.9
2019-03-20T12:39:55.000Z,7.9
2019-03-20T12:40:56.598Z,7.6
2019-03-20T12:41:58.171Z,7.7
2019-03-20T12:42:59.749Z,7.8
2019-03-20T12:44:01.391Z,7.9
2019-03-20T12:45:02.969Z,7.9
2019-03-20T12:46:04.452Z,7.9
2019-03-20T12:47:06.029Z,7.9
2019-03-20T12:48:07.740Z,7.9
2019-03-20T12:49:09.160Z,7.9
2019-03-20T12:50:10.564Z,7.9
2019-03-20T12:51:12.135Z,7.8
2019-03-20T12:52:13.697Z,7.8
2019-03-20T12:53:14.939Z,7.7
2019-03-20T12:54:16.189Z,7.7
2019-03-20T12:55:17.774Z,7.7
2019-03-20T12:56:19.343Z,7.7
2019-03-20T12:57:20.733Z,7.7
2019-03-20T12:58:22.288Z,7.8
2019-03-20T12:59:23.704Z,7.8
2019-03-20T13:00:28.352Z,7.8
2019-03-20T13:01:29.926Z,7.8
2019-03-20T13:02:31.335Z,7.8
2019-03-20T13:03:32.611Z,7.9
2019-03-20T13:04:34.021Z,7.9
2019-03-20T13:05:35.577Z,7.9
2019-03-20T13:06:36.960Z,7.9
2019-03-20T13:07:38.358Z,7.9
2019-03-20T13:08:39.760Z,7.7
2019-03-20T13:09:41.339Z,7.8
2019-03-20T13:10:42.593Z,7.8
2019-03-20T13:11:44.143Z,7.8
2019-03-20T13:12:45.704Z,7.8
2019-03-20T13:13:46.946Z,7.8
2019-03-20T13:14:48.568Z,7.7
2019-03-20T13:15:49.982Z,7.7
2019-03-20T13:16:51.219Z,7.6
2019-03-20T13:17:52.495Z,7.6
2019-03-20T13:18:53.758Z,7.6
2019-03-20T13:19:55.327Z,7.6
2019-03-20T13:20:56.876Z,7.6
2019-03-20T13:21:58.253Z,7.6
2019-03-20T13:22:59.805Z,7.6
2019-03-20T13:24:01.218Z,7.7
2019-03-20T13:25:02.633Z,7.7
2019-03-20T13:26:04.055Z,7.8
2019-03-20T13:27:05.141Z,7.8
2019-03-20T13:28:06.737Z,7.8
2019-03-20T13:29:08.123Z,7.8
2019-03-20T13:30:20.974Z,7.8
2019-03-20T13:31:22.391Z,7.7
2019-03-20T13:32:23.785Z,7.6
2019-03-20T13:33:27.657Z,7.4
2019-03-20T13:34:29.118Z,7.4
2019-03-20T13:35:30.677Z,7.3
2019-03-20T13:36:32.078Z,7.2
2019-03-20T13:37:33.704Z,7.2
2019-03-20T13:38:35.264Z,7.2
2019-03-20T13:39:36.699Z,7.2
2019-03-20T13:40:38.279Z,7.2
2019-03-20T13:41:39.826Z,7.2
2019-03-20T13:42:41.392Z,7.2
2019-03-20T13:43:42.647Z,7.1
2019-03-20T13:44:43.861Z,7.1
2019-03-20T13:45:45.246Z,7.1
2019-03-20T13:46:46.791Z,7.2
2019-03-20T13:47:48.191Z,7.1
2019-03-20T13:48:49.741Z,7.1
2019-03-20T13:49:51.161Z,7.1
2019-03-20T13:50:52.720Z,7.1
2019-03-20T13:51:54.285Z,7.2
2019-03-20T13:52:55.687Z,7.1
2019-03-20T13:53:57.082Z,7.2
2019-03-20T13:54:58.467Z,7.2
2019-03-20T13:56:00.018Z,7.2
2019-03-20T13:57:01.581Z,7.2
2019-03-20T13:58:03.166Z,7.2
2019-03-20T13:59:04.723Z,7.2
2019-03-20T14:00:06.171Z,7.2
2019-03-20T14:01:07.408Z,7.2
2019-03-20T14:02:08.810Z,7.2
2019-03-20T14:03:10.365Z,7.2
2019-03-20T14:04:11.922Z,7.2
2019-03-20T14:05:13.491Z,7.3
2019-03-20T14:06:14.716Z,7.3
2019-03-20T14:07:16.282Z,7.4
2019-03-20T14:08:17.840Z,7.5
2019-03-20T14:09:19.247Z,7.6